createdAt,value
2018-07-27T00:01:47.019Z,94777.09
2018-07-27T00:04:21.735Z,94778.35
2018-07-27T00:06:52.743Z,94749.09
2018-07-27T00:09:23.196Z,94773.16
2018-07-27T00:11:54.625Z,94770.98
2018-07-27T00:14:24.635Z,94769.75
2018-07-27T00:16:54.988Z,94774.86
2018-07-27T00:19:27.992Z,94783.70
2018-07-27T00:21:58.916Z,94775.42
2018-07-27T00:41:50.305Z,94778.26
2018-07-27T00:44:21.169Z,94778.26
2018-07-27T00:46:50.640Z,94785.94
2018-07-27T00:49:21.507Z,94780.17
2018-07-27T00:51:51.214Z,94775.35
2018-07-27T00:54:20.733Z,94777.66
2018-07-27T00:56:50.161Z,94781.28
2018-07-27T00:59:20.215Z,94777.41
2018-07-27T01:01:51.038Z,94782.63
2018-07-27T01:04:20.771Z,94781.39
2018-07-27T01:06:51.479Z,94774.05
2018-07-27T01:09:20.980Z,94780.69
2018-07-27T01:11:50.715Z,94784.18
2018-07-27T01:31:42.570Z,94784.32
2018-07-27T01:34:12.300Z,94788.05
2018-07-27T01:36:41.790Z,94788.18
2018-07-27T01:39:15.182Z,94793.97
2018-07-27T01:41:44.763Z,94787.64
2018-07-27T01:44:14.394Z,94780.59
2018-07-27T01:46:44.482Z,94781.69
2018-07-27T01:49:14.426Z,94786.15
2018-07-27T01:51:43.926Z,94780.50
2018-07-27T01:54:13.463Z,94783.25
2018-07-27T01:56:43.239Z,94774.94
2018-07-27T01:59:12.982Z,94776.52
2018-07-27T02:01:43.076Z,94778.86
2018-07-27T02:21:35.861Z,94770.56
2018-07-27T02:24:05.792Z,94775.44
2018-07-27T02:26:35.195Z,94770.13
2018-07-27T02:29:04.785Z,94766.42
2018-07-27T02:31:34.415Z,94771.41
2018-07-27T02:51:27.114Z,94776.64
2018-07-27T02:53:57.492Z,94774.97
2018-07-27T02:56:27.199Z,94775.93
2018-07-27T02:58:56.995Z,94778.58
2018-07-27T03:01:26.955Z,94769.79
2018-07-27T03:03:56.626Z,94782.38
2018-07-27T03:06:25.982Z,94777.69
2018-07-27T03:08:55.771Z,94781.00
2018-07-27T03:28:48.098Z,94770.15
2018-07-27T03:31:18.059Z,94771.48
2018-07-27T03:33:47.537Z,94776.20
2018-07-27T03:36:17.040Z,94775.45
2018-07-27T03:38:46.634Z,94772.80
2018-07-27T03:41:16.259Z,94784.72
2018-07-27T04:01:06.779Z,94784.59
2018-07-27T04:03:36.192Z,94785.69
2018-07-27T04:06:05.798Z,94782.73
2018-07-27T04:08:35.628Z,94784.01
2018-07-27T04:11:05.320Z,94782.91
2018-07-27T04:13:34.918Z,94788.33
2018-07-27T04:33:26.897Z,94780.42
2018-07-27T04:53:19.049Z,94790.09
2018-07-27T04:55:48.800Z,94785.95
2018-07-27T05:15:39.758Z,94792.42
2018-07-27T05:18:09.325Z,94787.11
2018-07-27T05:20:38.722Z,94787.19
2018-07-27T05:23:08.299Z,94795.78
2018-07-27T05:25:37.895Z,94792.32
2018-07-27T06:03:04.602Z,94810.42
2018-07-27T06:05:34.586Z,94804.70
2018-07-27T06:08:04.256Z,94803.53
2018-07-27T06:10:33.603Z,94803.97
2018-07-27T06:13:03.172Z,94809.41
2018-07-27T06:15:32.987Z,94815.63
2018-07-27T06:18:02.571Z,94811.30
2018-07-27T06:37:54.022Z,94818.93
2018-07-27T06:40:23.411Z,94820.41
2018-07-27T06:42:53.040Z,94821.27
2018-07-27T07:02:44.875Z,94818.29
2018-07-27T07:05:14.538Z,94820.53
2018-07-27T07:07:44.377Z,94822.33
2018-07-27T07:10:14.315Z,94826.08
2018-07-27T07:12:44.407Z,94829.12
2018-07-27T07:15:14.313Z,94832.80
2018-07-27T07:17:44.303Z,94832.19
2018-07-27T07:20:14.080Z,94836.37
2018-07-27T07:22:43.777Z,94829.38
2018-07-27T07:25:13.905Z,94831.08
2018-07-27T07:27:43.407Z,94837.98
2018-07-27T07:47:35.543Z,94829.53
2018-07-27T07:50:05.701Z,94827.73
2018-07-27T07:52:35.504Z,94829.80
2018-07-27T07:55:05.623Z,94827.96
2018-07-27T07:57:35.518Z,94826.75
2018-07-27T08:00:06.441Z,94818.39
2018-07-27T08:02:35.916Z,94818.13
2018-07-27T08:05:06.328Z,94820.53
2018-07-27T08:07:35.973Z,94818.47
2018-07-27T08:10:05.672Z,94819.53
2018-07-27T08:12:36.668Z,94810.30
2018-07-27T08:15:06.544Z,94806.75
2018-07-27T08:17:36.468Z,94807.17
2018-07-27T08:20:06.727Z,94818.36
2018-07-27T08:22:36.255Z,94808.75
2018-07-27T08:25:06.282Z,94813.52
2018-07-27T08:27:35.865Z,94809.92
2018-07-27T08:30:05.614Z,94806.58
2018-07-27T08:32:35.364Z,94803.95
2018-07-27T08:35:05.499Z,94802.19
2018-07-27T08:37:35.339Z,94801.94
2018-07-27T08:40:05.626Z,94790.42
2018-07-27T08:42:35.573Z,94795.90
2018-07-27T08:45:05.671Z,94794.81
2018-07-27T08:47:35.237Z,94789.81
2018-07-27T08:50:05.493Z,94790.20
2018-07-27T09:09:56.825Z,94777.07
2018-07-27T09:29:48.610Z,94745.88
2018-07-27T10:04:20.080Z,94705.19
2018-07-27T10:06:52.577Z,94705.63
2018-07-27T10:09:23.103Z,94703.66
2018-07-27T10:29:15.252Z,94686.98
2018-07-27T10:31:48.283Z,94687.31
2018-07-27T10:34:19.490Z,94688.28
2018-07-27T10:36:49.888Z,94680.95
2018-07-27T10:39:20.264Z,94677.08
2018-07-27T10:41:50.948Z,94659.92
2018-07-27T10:44:21.749Z,94673.86
2018-07-27T10:46:51.829Z,94661.92
2018-07-27T10:49:21.709Z,94653.43
2018-07-27T10:51:51.557Z,94657.66
2018-07-27T10:54:21.974Z,94650.91
2018-07-27T10:56:52.142Z,94640.17
2018-07-27T10:59:21.932Z,94644.30
2018-07-27T11:01:51.982Z,94644.80
2018-07-27T11:04:21.789Z,94645.73
2018-07-27T11:06:51.749Z,94642.41
2018-07-27T11:26:44.297Z,94637.49
2018-07-27T11:29:14.402Z,94641.41
2018-07-27T11:31:44.459Z,94635.17
2018-07-27T11:34:15.060Z,94626.36
2018-07-27T11:36:45.109Z,94629.41
2018-07-27T11:39:15.134Z,94623.48
2018-07-27T11:41:45.506Z,94619.66
2018-07-27T12:01:36.857Z,94604.20
2018-07-27T12:04:07.099Z,94595.16
2018-07-27T12:06:37.067Z,94593.02
2018-07-27T12:09:10.003Z,94593.54
2018-07-27T12:11:39.906Z,94588.56
2018-07-27T12:31:32.529Z,94603.44
2018-07-27T12:34:02.377Z,94605.97
2018-07-27T12:36:34.400Z,94603.84
2018-07-27T12:56:25.667Z,94605.37
2018-07-27T12:58:56.043Z,94602.00
2018-07-27T13:01:25.672Z,94610.87
2018-07-27T13:03:55.308Z,94608.05
2018-07-27T13:06:25.233Z,94603.83
2018-07-27T13:08:54.994Z,94600.86
2018-07-27T13:11:24.790Z,94598.41
2018-07-27T13:31:15.813Z,94579.56
2018-07-27T13:34:01.211Z,94582.16
2018-07-27T13:36:31.180Z,94587.16
2018-07-27T13:39:00.849Z,94591.85
2018-07-27T13:41:30.749Z,94593.40
2018-07-27T14:07:11.043Z,94621.48
2018-07-27T14:09:41.008Z,94624.20
2018-07-27T14:12:10.482Z,94633.33
2018-07-27T14:14:40.040Z,94624.44
2018-07-27T14:17:10.761Z,94622.71
2018-07-27T14:19:40.305Z,94621.88
2018-07-27T14:22:12.114Z,94623.85
2018-07-27T14:24:46.090Z,94613.38
2018-07-27T14:27:17.457Z,94623.14
2018-07-27T14:29:52.068Z,94618.06
2018-07-27T14:32:24.921Z,94619.75
2018-07-27T14:34:55.885Z,94613.03
2018-07-27T14:54:52.437Z,94626.41
2018-07-27T14:57:25.352Z,94618.19
2018-07-27T14:59:56.262Z,94615.61
2018-07-27T15:02:26.174Z,94620.80
2018-07-27T15:04:56.142Z,94613.14
2018-07-27T15:07:26.005Z,94614.16
2018-07-27T15:27:18.787Z,94627.57
2018-07-27T15:29:48.727Z,94630.73
2018-07-27T15:32:18.742Z,94624.19
2018-07-27T15:34:48.538Z,94629.77
2018-07-27T15:37:18.604Z,94630.51
2018-07-27T15:39:48.359Z,94626.41
2018-07-27T15:42:18.411Z,94633.59
2018-07-27T15:44:51.734Z,94637.86
2018-07-27T15:47:22.248Z,94640.08
2018-07-27T15:49:53.601Z,94637.56
2018-07-27T15:52:23.089Z,94637.48
2018-07-27T15:54:52.573Z,94639.41
2018-07-27T15:57:22.987Z,94635.00
2018-07-27T15:59:53.283Z,94637.67
2018-07-27T16:02:26.521Z,94636.73
2018-07-27T16:22:20.272Z,94643.08
2018-07-27T16:42:16.897Z,94654.01
2018-07-27T16:44:46.834Z,94659.67
2018-07-27T16:47:17.266Z,94667.54
2018-07-27T17:07:08.994Z,94675.25
2018-07-27T17:09:38.934Z,94678.22
2018-07-27T17:12:08.749Z,94677.86
2018-07-27T17:14:38.553Z,94679.94
2018-07-27T17:34:30.358Z,94667.00
2018-07-27T17:37:00.242Z,94707.67
2018-07-27T17:39:29.898Z,94708.66
2018-07-27T17:41:59.851Z,94709.20
2018-07-27T17:44:29.293Z,94706.30
2018-07-27T17:46:58.828Z,94714.56
2018-07-27T17:49:28.663Z,94714.09
2018-07-27T18:09:20.288Z,94715.06
2018-07-27T18:11:49.812Z,94722.24
2018-07-27T18:14:19.251Z,94716.02
2018-07-27T18:16:48.810Z,94717.92
2018-07-27T18:19:18.550Z,94722.61
2018-07-27T18:21:48.813Z,94726.75
2018-07-27T18:24:18.637Z,94723.97
2018-07-27T18:26:48.893Z,94730.44
2018-07-27T18:29:18.582Z,94721.87
2018-07-27T18:31:48.095Z,94729.33
2018-07-27T18:51:40.746Z,94728.97
2018-07-27T19:11:33.602Z,94753.62
2018-07-27T19:14:03.467Z,94758.05
2018-07-27T19:33:56.295Z,94768.88
2018-07-27T19:36:26.046Z,94770.64
2018-07-27T19:56:17.580Z,94743.36
2018-07-27T20:16:09.402Z,94737.63
2018-07-27T20:18:39.057Z,94734.64
2018-07-27T20:21:08.831Z,94737.64
2018-07-27T20:23:38.643Z,94742.75
2018-07-27T20:26:08.133Z,94755.21
2018-07-27T20:28:38.085Z,94748.55
2018-07-27T20:31:08.310Z,94747.30
2018-07-27T20:33:37.886Z,94748.75
2018-07-27T20:36:07.678Z,94749.63
2018-07-27T20:38:37.633Z,94748.13
2018-07-27T20:41:07.561Z,94746.97
2018-07-27T20:43:37.159Z,94745.42
2018-07-27T20:46:06.749Z,94741.17
2018-07-27T20:48:36.394Z,94743.14
2018-07-27T20:51:06.165Z,94743.34
2018-07-27T20:53:36.028Z,94741.97
2018-07-27T20:56:05.900Z,94733.73
2018-07-27T20:58:35.710Z,94733.31
2018-07-27T21:01:05.458Z,94726.02
2018-07-27T21:03:34.838Z,94722.02
2018-07-27T21:06:04.350Z,94722.66
2018-07-27T21:08:33.991Z,94714.91
2018-07-27T21:11:03.851Z,94704.88
2018-07-27T21:13:33.468Z,94703.12
2018-07-27T21:16:02.997Z,94697.88
2018-07-27T21:18:32.689Z,94696.13
2018-07-27T21:21:02.112Z,94693.09
2018-07-27T21:23:31.768Z,94701.95
2018-07-27T21:26:01.150Z,94694.38
2018-07-27T21:28:30.607Z,94677.69
2018-07-27T21:31:00.574Z,94676.27
2018-07-27T21:33:30.198Z,94676.36
2018-07-27T21:35:59.854Z,94678.56
2018-07-27T21:38:29.608Z,94672.48
2018-07-27T21:40:59.168Z,94668.81
2018-07-27T21:43:29.626Z,94674.69
2018-07-27T21:45:59.263Z,94677.68
2018-07-27T21:48:28.622Z,94685.84
2018-07-27T21:50:58.309Z,94681.15
2018-07-27T21:53:27.979Z,94681.02
2018-07-27T21:55:58.357Z,94679.36
2018-07-27T21:58:27.947Z,94674.48
2018-07-27T22:00:57.979Z,94679.27
2018-07-27T22:03:27.498Z,94683.48
2018-07-27T22:05:56.965Z,94675.15
2018-07-27T22:08:26.609Z,94680.89
2018-07-27T22:10:56.339Z,94681.66
2018-07-27T22:13:25.823Z,94686.72
2018-07-27T22:15:55.907Z,94687.13
2018-07-27T22:18:25.768Z,94686.86
2018-07-27T22:20:55.513Z,94688.09
2018-07-27T22:23:25.685Z,94694.25
2018-07-27T22:25:55.606Z,94692.64
2018-07-27T22:28:26.397Z,94693.52
2018-07-27T22:30:56.054Z,94683.61
2018-07-27T22:33:25.664Z,94687.66
2018-07-27T22:35:55.694Z,94686.54
2018-07-27T22:38:25.393Z,94683.73
2018-07-27T22:40:55.321Z,94686.08
2018-07-27T22:43:24.942Z,94693.46
2018-07-27T22:45:58.159Z,94689.98
2018-07-27T22:48:27.877Z,94686.16
2018-07-27T22:50:57.327Z,94686.17
2018-07-27T22:53:27.133Z,94685.30
2018-07-27T22:55:58.554Z,94681.64
2018-07-27T22:58:28.145Z,94682.36
2018-07-27T23:00:58.002Z,94683.14
2018-07-27T23:03:28.858Z,94682.92
2018-07-27T23:05:58.198Z,94685.33
2018-07-27T23:08:29.276Z,94685.94
2018-07-27T23:10:59.026Z,94687.05
2018-07-27T23:13:28.455Z,94685.00
2018-07-27T23:15:59.497Z,94684.93
2018-07-27T23:18:29.095Z,94685.64
2018-07-27T23:20:58.501Z,94682.55
2018-07-27T23:23:28.077Z,94680.59
2018-07-27T23:26:02.462Z,94674.80
2018-07-27T23:28:32.112Z,94677.71
2018-07-27T23:31:01.977Z,94680.84
2018-07-27T23:33:31.559Z,94676.20
2018-07-27T23:36:01.077Z,94678.54
2018-07-27T23:38:30.738Z,94684.64
2018-07-27T23:41:00.787Z,94675.16
2018-07-27T23:43:32.146Z,94685.11
2018-07-27T23:46:02.137Z,94686.62
2018-07-27T23:48:32.029Z,94684.25
2018-07-27T23:51:01.696Z,94687.02
2018-07-27T23:53:31.245Z,94685.30
2018-07-27T23:56:00.683Z,94675.55
2018-07-27T23:58:30.309Z,94685.10
